sensor_id;sensor_type;location;lat;lon;timestamp;pressure;altitude;pressure_sealevel;temperature;humidity
35676;BME280;21790;42.668;23.298;2023-04-25T00:18:32;93897.59;;;18.29;48.33
35676;BME280;21790;42.668;23.298;2023-04-25T00:21:09;93892.75;;;18.48;47.20
35676;BME280;21790;42.668;23.298;2023-04-25T00:23:49;93884.63;;;18.63;46.86
35676;BME280;21790;42.668;23.298;2023-04-25T00:26:16;93881.31;;;18.65;47.45
35676;BME280;21790;42.668;23.298;2023-04-25T00:28:42;93891.09;;;18.58;48.16
35676;BME280;21790;42.668;23.298;2023-04-25T00:31:07;93894.41;;;18.57;48.82
35676;BME280;21790;42.668;23.298;2023-04-25T00:33:45;93889.91;;;18.67;48.12
35676;BME280;21790;42.668;23.298;2023-04-25T00:36:12;93892.38;;;18.57;49.71
35676;BME280;21790;42.668;23.298;2023-04-25T00:38:38;93889.91;;;18.67;48.81
35676;BME280;21790;42.668;23.298;2023-04-25T00:41:08;93886.91;;;18.65;48.64
35676;BME280;21790;42.668;23.298;2023-04-25T00:43:36;93890.56;;;18.60;49.08
35676;BME280;21790;42.668;23.298;2023-04-25T00:46:09;93898.88;;;18.65;49.31
35676;BME280;21790;42.668;23.298;2023-04-25T00:48:35;93911.88;;;18.44;50.67
35676;BME280;21790;42.668;23.298;2023-04-25T00:51:02;93910.81;;;18.47;50.53
35676;BME280;21790;42.668;23.298;2023-04-25T00:53:33;93896.81;;;18.47;51.12
35676;BME280;21790;42.668;23.298;2023-04-25T00:56:08;93883.16;;;18.44;51.05
35676;BME280;21790;42.668;23.298;2023-04-25T00:58:37;93892.06;;;18.42;51.00
35676;BME280;21790;42.668;23.298;2023-04-25T01:01:07;93887.84;;;18.54;51.03
35676;BME280;21790;42.668;23.298;2023-04-25T01:09:38;93861.06;;;18.59;50.88
35676;BME280;21790;42.668;23.298;2023-04-25T01:12:15;93855.06;;;18.17;51.86
35676;BME280;21790;42.668;23.298;2023-04-25T01:15:12;93878.16;;;17.86;52.83
35676;BME280;21790;42.668;23.298;2023-04-25T01:17:46;93863.44;;;18.36;51.17
35676;BME280;21790;42.668;23.298;2023-04-25T01:23:25;93865.25;;;18.33;51.58
35676;BME280;21790;42.668;23.298;2023-04-25T01:25:55;93859.19;;;18.48;51.07
35676;BME280;21790;42.668;23.298;2023-04-25T01:28:43;93850.91;;;18.56;50.55
35676;BME280;21790;42.668;23.298;2023-04-25T01:41:24;93866.28;;;17.98;52.21
35676;BME280;21790;42.668;23.298;2023-04-25T01:47:25;93866.50;;;18.01;52.02
35676;BME280;21790;42.668;23.298;2023-04-25T02:04:19;93863.44;;;18.17;50.48
35676;BME280;21790;42.668;23.298;2023-04-25T02:06:49;93866.91;;;18.42;50.25
35676;BME280;21790;42.668;23.298;2023-04-25T02:09:20;93864.84;;;18.11;51.17
35676;BME280;21790;42.668;23.298;2023-04-25T02:11:50;93866.13;;;18.10;51.70
35676;BME280;21790;42.668;23.298;2023-04-25T02:17:24;93850.88;;;18.11;51.36
35676;BME280;21790;42.668;23.298;2023-04-25T02:20:02;93848.53;;;18.28;50.92
35676;BME280;21790;42.668;23.298;2023-04-25T02:22:40;93847.00;;;18.14;51.06
35676;BME280;21790;42.668;23.298;2023-04-25T02:25:11;93848.31;;;17.94;51.07
35676;BME280;21790;42.668;23.298;2023-04-25T02:27:40;93842.41;;;17.97;51.27
35676;BME280;21790;42.668;23.298;2023-04-25T02:30:06;93833.59;;;17.93;51.54
35676;BME280;21790;42.668;23.298;2023-04-25T02:32:33;93838.06;;;17.83;52.01
35676;BME280;21790;42.668;23.298;2023-04-25T02:35:18;93823.75;;;17.87;51.85
35676;BME280;21790;42.668;23.298;2023-04-25T02:38:12;93824.06;;;17.83;51.99
35676;BME280;21790;42.668;23.298;2023-04-25T02:40:38;93824.91;;;17.60;52.55
35676;BME280;21790;42.668;23.298;2023-04-25T02:43:32;93825.88;;;17.62;52.49
35676;BME280;21790;42.668;23.298;2023-04-25T03:03:46;93806.41;;;17.75;51.08
35676;BME280;21790;42.668;23.298;2023-04-25T03:06:17;93804.97;;;17.69;51.85
35676;BME280;21790;42.668;23.298;2023-04-25T03:12:20;93803.88;;;17.90;50.72
35676;BME280;21790;42.668;23.298;2023-04-25T03:15:11;93806.31;;;17.81;51.49
35676;BME280;21790;42.668;23.298;2023-04-25T03:20:38;93795.66;;;17.79;51.16
35676;BME280;21790;42.668;23.298;2023-04-25T03:23:05;93796.78;;;17.52;52.20
35676;BME280;21790;42.668;23.298;2023-04-25T03:29:14;93803.25;;;17.66;51.84
35676;BME280;21790;42.668;23.298;2023-04-25T03:31:42;93784.50;;;17.61;51.93
35676;BME280;21790;42.668;23.298;2023-04-25T03:34:09;93789.53;;;17.43;52.68
35676;BME280;21790;42.668;23.298;2023-04-25T03:36:43;93802.84;;;17.13;53.27
35676;BME280;21790;42.668;23.298;2023-04-25T03:39:21;93804.63;;;17.53;52.15
35676;BME280;21790;42.668;23.298;2023-04-25T03:41:47;93804.44;;;17.08;53.14
35676;BME280;21790;42.668;23.298;2023-04-25T03:47:25;93793.34;;;17.65;51.53
35676;BME280;21790;42.668;23.298;2023-04-25T03:49:53;93787.34;;;17.74;51.32
35676;BME280;21790;42.668;23.298;2023-04-25T03:52:27;93792.28;;;17.68;52.10
35676;BME280;21790;42.668;23.298;2023-04-25T03:58:27;93782.81;;;17.52;51.95
35676;BME280;21790;42.668;23.298;2023-04-25T04:01:38;93796.25;;;17.35;52.60
35676;BME280;21790;42.668;23.298;2023-04-25T04:04:04;93793.84;;;17.44;52.44
35676;BME280;21790;42.668;23.298;2023-04-25T04:06:32;93791.81;;;17.82;51.44
35676;BME280;21790;42.668;23.298;2023-04-25T04:08:59;93801.81;;;17.78;51.51
35676;BME280;21790;42.668;23.298;2023-04-25T04:11:26;93810.47;;;17.55;53.12
35676;BME280;21790;42.668;23.298;2023-04-25T04:13:57;93801.31;;;17.55;53.19
35676;BME280;21790;42.668;23.298;2023-04-25T04:16:23;93798.53;;;17.55;52.42
35676;BME280;21790;42.668;23.298;2023-04-25T04:19:03;93801.31;;;17.36;53.99
35676;BME280;21790;42.668;23.298;2023-04-25T04:24:51;93800.81;;;17.75;51.67
35676;BME280;21790;42.668;23.298;2023-04-25T04:27:28;93801.31;;;17.92;51.17
35676;BME280;21790;42.668;23.298;2023-04-25T04:29:59;93807.19;;;18.08;50.69
35676;BME280;21790;42.668;23.298;2023-04-25T04:32:27;93808.03;;;18.03;50.72
35676;BME280;21790;42.668;23.298;2023-04-25T04:34:54;93807.84;;;18.14;50.52
35676;BME280;21790;42.668;23.298;2023-04-25T04:37:30;93800.28;;;18.40;50.26
35676;BME280;21790;42.668;23.298;2023-04-25T04:43:22;93794.38;;;17.80;52.21
35676;BME280;21790;42.668;23.298;2023-04-25T04:45:49;93801.47;;;17.44;53.40
35676;BME280;21790;42.668;23.298;2023-04-25T04:48:32;93808.66;;;17.77;52.38
35676;BME280;21790;42.668;23.298;2023-04-25T04:51:02;93804.50;;;17.83;51.82
35676;BME280;21790;42.668;23.298;2023-04-25T04:53:59;93808.94;;;17.92;52.03
35676;BME280;21790;42.668;23.298;2023-04-25T04:59:54;93814.19;;;17.82;51.54
35676;BME280;21790;42.668;23.298;2023-04-25T05:02:29;93822.31;;;18.63;53.79
35676;BME280;21790;42.668;23.298;2023-04-25T05:04:56;93818.91;;;19.09;51.37
35676;BME280;21790;42.668;23.298;2023-04-25T05:07:23;93832.81;;;19.15;49.48
35676;BME280;21790;42.668;23.298;2023-04-25T05:09:57;93835.59;;;19.15;48.84
35676;BME280;21790;42.668;23.298;2023-04-25T05:12:24;93847.16;;;19.25;50.04
35676;BME280;21790;42.668;23.298;2023-04-25T05:14:50;93844.56;;;19.13;48.78
35676;BME280;21790;42.668;23.298;2023-04-25T05:47:42;93832.91;;;18.51;50.25
35676;BME280;21790;42.668;23.298;2023-04-25T06:34:40;93851.53;;;18.94;49.71
35676;BME280;21790;42.668;23.298;2023-04-25T06:37:11;93819.91;;;19.25;52.53
35676;BME280;21790;42.668;23.298;2023-04-25T06:39:55;93845.91;;;19.86;49.96
35676;BME280;21790;42.668;23.298;2023-04-25T06:45:26;93850.63;;;20.38;48.09
35676;BME280;21790;42.668;23.298;2023-04-25T06:58:29;93852.31;;;19.34;48.07
35676;BME280;21790;42.668;23.298;2023-04-25T07:01:17;93847.47;;;19.34;48.23
35676;BME280;21790;42.668;23.298;2023-04-25T07:22:38;93847.25;;;19.32;49.22
35676;BME280;21790;42.668;23.298;2023-04-25T08:22:57;93815.75;;;20.13;45.10
35676;BME280;21790;42.668;23.298;2023-04-25T08:25:22;93811.47;;;20.32;44.74
35676;BME280;21790;42.668;23.298;2023-04-25T08:30:34;93804.06;;;20.42;44.54
35676;BME280;21790;42.668;23.298;2023-04-25T08:33:01;93811.69;;;20.55;44.44
35676;BME280;21790;42.668;23.298;2023-04-25T08:35:27;93818.06;;;20.56;44.64
35676;BME280;21790;42.668;23.298;2023-04-25T08:37:57;93817.41;;;20.70;44.78
35676;BME280;21790;42.668;23.298;2023-04-25T08:40:27;93822.25;;;20.28;44.29
35676;BME280;21790;42.668;23.298;2023-04-25T08:42:57;93820.50;;;20.38;44.14
35676;BME280;21790;42.668;23.298;2023-04-25T08:45:33;93818.84;;;20.22;44.81
35676;BME280;21790;42.668;23.298;2023-04-25T08:48:05;93807.41;;;20.20;44.80
35676;BME280;21790;42.668;23.298;2023-04-25T08:50:32;93809.31;;;20.25;44.97
35676;BME280;21790;42.668;23.298;2023-04-25T08:53:04;93815.84;;;20.82;50.70
35676;BME280;21790;42.668;23.298;2023-04-25T08:55:30;93803.69;;;21.44;48.71
35676;BME280;21790;42.668;23.298;2023-04-25T08:57:57;93796.75;;;21.89;46.01
35676;BME280;21790;42.668;23.298;2023-04-25T09:00:23;93798.50;;;21.99;45.02
35676;BME280;21790;42.668;23.298;2023-04-25T09:02:49;93789.75;;;22.18;43.72
35676;BME280;21790;42.668;23.298;2023-04-25T09:05:15;93787.50;;;22.32;43.32
35676;BME280;21790;42.668;23.298;2023-04-25T09:11:14;93792.38;;;22.24;41.84
35676;BME280;21790;42.668;23.298;2023-04-25T09:13:41;93780.59;;;21.74;45.06
35676;BME280;21790;42.668;23.298;2023-04-25T09:19:35;93783.84;;;21.50;44.02
35676;BME280;21790;42.668;23.298;2023-04-25T09:22:09;93779.72;;;21.43;42.96
35676;BME280;21790;42.668;23.298;2023-04-25T09:27:03;93800.28;;;20.81;44.69
35676;BME280;21790;42.668;23.298;2023-04-25T09:29:31;93792.56;;;21.03;43.85
35676;BME280;21790;42.668;23.298;2023-04-25T09:32:31;93777.06;;;21.38;44.19
35676;BME280;21790;42.668;23.298;2023-04-25T09:35:05;93780.66;;;21.46;42.85
35676;BME280;21790;42.668;23.298;2023-04-25T09:37:32;93777.47;;;21.49;42.77
35676;BME280;21790;42.668;23.298;2023-04-25T09:40:17;93780.63;;;21.82;42.06
35676;BME280;21790;42.668;23.298;2023-04-25T09:42:44;93771.03;;;21.77;42.13
35676;BME280;21790;42.668;23.298;2023-04-25T09:45:12;93778.47;;;22.03;43.84
35676;BME280;21790;42.668;23.298;2023-04-25T09:51:17;93780.59;;;21.31;41.43
35676;BME280;21790;42.668;23.298;2023-04-25T09:53:53;93777.84;;;21.46;40.82
35676;BME280;21790;42.668;23.298;2023-04-25T09:56:19;93775.91;;;21.33;42.03
35676;BME280;21790;42.668;23.298;2023-04-25T09:58:56;93775.25;;;21.48;40.58
35676;BME280;21790;42.668;23.298;2023-04-25T10:01:27;93762.13;;;21.50;41.12
35676;BME280;21790;42.668;23.298;2023-04-25T10:03:56;93763.88;;;21.68;40.62
35676;BME280;21790;42.668;23.298;2023-04-25T10:06:23;93759.41;;;21.73;41.62
35676;BME280;21790;42.668;23.298;2023-04-25T10:08:52;93766.41;;;21.87;39.75
35676;BME280;21790;42.668;23.298;2023-04-25T10:11:24;93818.09;;;21.12;42.73
35676;BME280;21790;42.668;23.298;2023-04-25T10:13:52;93814.59;;;21.48;41.52
35676;BME280;21790;42.668;23.298;2023-04-25T10:16:18;93822.25;;;20.28;40.53
35676;BME280;21790;42.668;23.298;2023-04-25T10:18:44;93806.31;;;20.23;42.12
35676;BME280;21790;42.668;23.298;2023-04-25T10:21:10;93789.75;;;20.74;42.73
35676;BME280;21790;42.668;23.298;2023-04-25T10:23:37;93780.25;;;20.57;41.09
35676;BME280;21790;42.668;23.298;2023-04-25T10:26:03;93779.13;;;21.09;44.30
35676;BME280;21790;42.668;23.298;2023-04-25T10:28:29;93765.66;;;21.43;42.63
35676;BME280;21790;42.668;23.298;2023-04-25T10:31:15;93746.09;;;21.74;43.68
35676;BME280;21790;42.668;23.298;2023-04-25T10:33:42;93756.72;;;22.03;42.91
35676;BME280;21790;42.668;23.298;2023-04-25T10:36:10;93759.44;;;21.88;41.88
35676;BME280;21790;42.668;23.298;2023-04-25T10:38:38;93748.84;;;22.17;42.07
35676;BME280;21790;42.668;23.298;2023-04-25T10:41:06;93746.25;;;22.57;41.97
35676;BME280;21790;42.668;23.298;2023-04-25T10:43:43;93759.03;;;22.73;39.36
35676;BME280;21790;42.668;23.298;2023-04-25T10:48:45;93752.28;;;22.84;38.99
35676;BME280;21790;42.668;23.298;2023-04-25T10:51:17;93743.25;;;22.93;40.74
35676;BME280;21790;42.668;23.298;2023-04-25T10:53:48;93762.41;;;22.87;39.50
35676;BME280;21790;42.668;23.298;2023-04-25T10:56:38;93761.09;;;22.96;39.64
35676;BME280;21790;42.668;23.298;2023-04-25T11:01:40;93748.84;;;23.08;38.46
35676;BME280;21790;42.668;23.298;2023-04-25T11:04:40;93748.47;;;23.12;37.60
35676;BME280;21790;42.668;23.298;2023-04-25T11:09:30;93750.91;;;23.08;37.92
35676;BME280;21790;42.668;23.298;2023-04-25T11:11:57;93744.75;;;22.86;36.09
35676;BME280;21790;42.668;23.298;2023-04-25T11:14:28;93745.13;;;22.90;38.78
35676;BME280;21790;42.668;23.298;2023-04-25T11:16:58;93735.72;;;22.96;37.15
35676;BME280;21790;42.668;23.298;2023-04-25T11:19:25;93743.44;;;22.95;39.04
35676;BME280;21790;42.668;23.298;2023-04-25T11:26:55;93744.75;;;22.71;35.86
35676;BME280;21790;42.668;23.298;2023-04-25T11:29:23;93750.00;;;22.75;36.34
35676;BME280;21790;42.668;23.298;2023-04-25T11:31:48;93748.88;;;22.55;35.96
35676;BME280;21790;42.668;23.298;2023-04-25T11:34:18;93748.50;;;22.51;36.32
35676;BME280;21790;42.668;23.298;2023-04-25T11:36:46;93755.63;;;22.37;36.63
35676;BME280;21790;42.668;23.298;2023-04-25T11:39:12;93763.13;;;22.27;37.50
35676;BME280;21790;42.668;23.298;2023-04-25T11:44:10;93774.00;;;22.23;37.75
35676;BME280;21790;42.668;23.298;2023-04-25T11:46:38;93780.69;;;21.97;38.31
35676;BME280;21790;42.668;23.298;2023-04-25T12:07:10;93755.75;;;19.61;41.11
35676;BME280;21790;42.668;23.298;2023-04-25T12:09:36;93746.41;;;19.32;41.93
35676;BME280;21790;42.668;23.298;2023-04-25T12:14:36;93752.72;;;19.59;40.91
35676;BME280;21790;42.668;23.298;2023-04-25T12:17:03;93747.78;;;19.86;41.07
35676;BME280;21790;42.668;23.298;2023-04-25T12:19:37;93745.94;;;20.09;39.80
35676;BME280;21790;42.668;23.298;2023-04-25T12:22:19;93739.25;;;20.54;39.82
35676;BME280;21790;42.668;23.298;2023-04-25T12:24:45;93734.66;;;20.64;39.86
35676;BME280;21790;42.668;23.298;2023-04-25T12:27:14;93727.69;;;20.85;40.17
35676;BME280;21790;42.668;23.298;2023-04-25T12:29:51;93736.09;;;21.14;38.63
35676;BME280;21790;42.668;23.298;2023-04-25T12:32:17;93775.34;;;21.06;40.22
35676;BME280;21790;42.668;23.298;2023-04-25T12:34:43;93778.59;;;21.10;41.41
35676;BME280;21790;42.668;23.298;2023-04-25T12:37:13;93795.91;;;21.01;41.61
35676;BME280;21790;42.668;23.298;2023-04-25T12:39:38;93795.84;;;20.65;41.18
35676;BME280;21790;42.668;23.298;2023-04-25T12:42:07;93803.03;;;20.74;41.70
35676;BME280;21790;42.668;23.298;2023-04-25T12:52:23;93814.94;;;20.87;43.08
35676;BME280;21790;42.668;23.298;2023-04-25T13:05:06;93830.69;;;20.70;44.74
35676;BME280;21790;42.668;23.298;2023-04-25T13:07:32;93834.31;;;20.57;45.00
35676;BME280;21790;42.668;23.298;2023-04-25T13:10:00;93830.09;;;20.64;45.45
35676;BME280;21790;42.668;23.298;2023-04-25T13:12:27;93827.38;;;20.51;46.12
35676;BME280;21790;42.668;23.298;2023-04-25T13:14:53;93813.94;;;20.36;46.66
35676;BME280;21790;42.668;23.298;2023-04-25T13:20:02;93827.69;;;20.13;47.91
35676;BME280;21790;42.668;23.298;2023-04-25T13:22:30;93821.63;;;20.01;47.73
35676;BME280;21790;42.668;23.298;2023-04-25T13:24:55;93829.84;;;19.86;48.31
35676;BME280;21790;42.668;23.298;2023-04-25T13:27:21;93819.19;;;19.85;48.48
35676;BME280;21790;42.668;23.298;2023-04-25T13:29:46;93824.75;;;20.19;49.82
35676;BME280;21790;42.668;23.298;2023-04-25T13:32:29;93803.91;;;20.27;47.94
35676;BME280;21790;42.668;23.298;2023-04-25T13:35:24;93812.13;;;19.91;48.56
35676;BME280;21790;42.668;23.298;2023-04-25T13:48:11;93811.53;;;17.71;51.48
35676;BME280;21790;42.668;23.298;2023-04-25T13:50:37;93814.06;;;18.07;51.66
35676;BME280;21790;42.668;23.298;2023-04-25T13:53:02;93796.41;;;18.30;51.08
35676;BME280;21790;42.668;23.298;2023-04-25T13:55:28;93794.41;;;18.12;49.52
35676;BME280;21790;42.668;23.298;2023-04-25T13:57:53;93787.19;;;18.04;50.64
35676;BME280;21790;42.668;23.298;2023-04-25T14:00:22;93792.28;;;18.18;49.63
35676;BME280;21790;42.668;23.298;2023-04-25T14:02:50;93783.69;;;18.16;51.20
35676;BME280;21790;42.668;23.298;2023-04-25T14:05:15;93785.59;;;18.53;50.82
35676;BME280;21790;42.668;23.298;2023-04-25T14:07:41;93770.88;;;18.66;49.96
35676;BME280;21790;42.668;23.298;2023-04-25T14:10:08;93769.25;;;19.10;49.92
35676;BME280;21790;42.668;23.298;2023-04-25T14:20:19;93763.63;;;19.62;49.01
35676;BME280;21790;42.668;23.298;2023-04-25T14:22:46;93763.69;;;19.70;49.31
35676;BME280;21790;42.668;23.298;2023-04-25T14:25:12;93765.16;;;19.84;49.31
35676;BME280;21790;42.668;23.298;2023-04-25T14:30:13;93758.28;;;20.06;50.50
35676;BME280;21790;42.668;23.298;2023-04-25T14:32:39;93764.28;;;20.10;49.35
35676;BME280;21790;42.668;23.298;2023-04-25T14:35:05;93759.91;;;20.22;48.88
35676;BME280;21790;42.668;23.298;2023-04-25T14:37:31;93755.13;;;20.10;48.81
35676;BME280;21790;42.668;23.298;2023-04-25T14:39:56;93757.91;;;20.30;49.50
35676;BME280;21790;42.668;23.298;2023-04-25T14:42:22;93753.56;;;20.42;48.60
35676;BME280;21790;42.668;23.298;2023-04-25T14:44:47;93752.25;;;20.64;45.63
35676;BME280;21790;42.668;23.298;2023-04-25T14:47:13;93743.88;;;20.72;45.47
35676;BME280;21790;42.668;23.298;2023-04-25T14:49:38;93746.78;;;20.59;47.36
35676;BME280;21790;42.668;23.298;2023-04-25T14:52:04;93754.94;;;20.49;48.16
35676;BME280;21790;42.668;23.298;2023-04-25T14:54:35;93742.06;;;20.54;48.08
35676;BME280;21790;42.668;23.298;2023-04-25T15:03:04;93707.56;;;20.25;46.50
35676;BME280;21790;42.668;23.298;2023-04-25T15:05:30;93739.00;;;20.44;45.77
35676;BME280;21790;42.668;23.298;2023-04-25T15:08:02;93736.03;;;20.50;45.43
35676;BME280;21790;42.668;23.298;2023-04-25T15:10:28;93717.59;;;20.33;45.06
35676;BME280;21790;42.668;23.298;2023-04-25T15:12:54;93721.81;;;20.48;45.79
35676;BME280;21790;42.668;23.298;2023-04-25T15:15:27;93724.44;;;20.45;46.60
35676;BME280;21790;42.668;23.298;2023-04-25T15:17:53;93720.28;;;20.46;45.75
35676;BME280;21790;42.668;23.298;2023-04-25T15:20:20;93708.28;;;20.38;46.10
35676;BME280;21790;42.668;23.298;2023-04-25T15:22:47;93715.66;;;20.49;45.17
35676;BME280;21790;42.668;23.298;2023-04-25T15:25:15;93711.88;;;20.46;44.90
35676;BME280;21790;42.668;23.298;2023-04-25T15:27:43;93715.03;;;20.43;45.02
35676;BME280;21790;42.668;23.298;2023-04-25T15:30:14;93698.06;;;20.49;45.33
35676;BME280;21790;42.668;23.298;2023-04-25T15:32:44;93696.16;;;20.43;45.92
35676;BME280;21790;42.668;23.298;2023-04-25T15:35:10;93701.97;;;20.45;45.85
35676;BME280;21790;42.668;23.298;2023-04-25T15:37:37;93704.28;;;20.55;46.02
35676;BME280;21790;42.668;23.298;2023-04-25T15:40:07;93718.25;;;19.85;46.71
35676;BME280;21790;42.668;23.298;2023-04-25T15:42:39;93707.22;;;19.87;46.66
35676;BME280;21790;42.668;23.298;2023-04-25T15:45:06;93707.78;;;19.85;46.82
35676;BME280;21790;42.668;23.298;2023-04-25T15:47:34;93698.63;;;19.85;46.90
35676;BME280;21790;42.668;23.298;2023-04-25T15:50:01;93690.47;;;19.74;46.60
35676;BME280;21790;42.668;23.298;2023-04-25T15:52:27;93697.66;;;19.82;46.72
35676;BME280;21790;42.668;23.298;2023-04-25T15:54:53;93702.91;;;19.86;48.02
35676;BME280;21790;42.668;23.298;2023-04-25T15:57:19;93702.31;;;19.80;49.05
35676;BME280;21790;42.668;23.298;2023-04-25T15:59:46;93696.84;;;19.74;49.51
35676;BME280;21790;42.668;23.298;2023-04-25T16:02:13;93703.41;;;19.77;49.29
35676;BME280;21790;42.668;23.298;2023-04-25T16:04:39;93699.94;;;19.84;49.35
35676;BME280;21790;42.668;23.298;2023-04-25T16:07:05;93710.38;;;19.83;48.83
35676;BME280;21790;42.668;23.298;2023-04-25T16:09:32;93705.84;;;19.80;48.39
35676;BME280;21790;42.668;23.298;2023-04-25T16:11:59;93706.81;;;19.83;47.77
35676;BME280;21790;42.668;23.298;2023-04-25T16:14:25;93713.09;;;19.76;48.02
35676;BME280;21790;42.668;23.298;2023-04-25T16:16:50;93717.69;;;19.86;48.27
35676;BME280;21790;42.668;23.298;2023-04-25T16:19:16;93697.16;;;19.71;48.25
35676;BME280;21790;42.668;23.298;2023-04-25T16:21:42;93706.41;;;19.79;48.21
35676;BME280;21790;42.668;23.298;2023-04-25T16:24:08;93705.38;;;19.69;48.08
35676;BME280;21790;42.668;23.298;2023-04-25T16:26:34;93706.81;;;19.62;47.52
35676;BME280;21790;42.668;23.298;2023-04-25T16:29:03;93717.66;;;19.66;46.12
35676;BME280;21790;42.668;23.298;2023-04-25T16:31:29;93710.41;;;19.49;46.12
35676;BME280;21790;42.668;23.298;2023-04-25T16:33:54;93724.44;;;19.70;46.09
35676;BME280;21790;42.668;23.298;2023-04-25T16:36:20;93719.03;;;19.38;46.88
35676;BME280;21790;42.668;23.298;2023-04-25T16:38:46;93709.34;;;19.94;49.77
35676;BME280;21790;42.668;23.298;2023-04-25T16:41:11;93722.50;;;20.69;46.96
35676;BME280;21790;42.668;23.298;2023-04-25T16:43:38;93724.59;;;21.04;44.67
35676;BME280;21790;42.668;23.298;2023-04-25T16:46:05;93732.44;;;20.98;44.30
35676;BME280;21790;42.668;23.298;2023-04-25T16:48:31;93722.41;;;20.82;44.53
35676;BME280;21790;42.668;23.298;2023-04-25T16:50:56;93731.00;;;20.76;44.75
35676;BME280;21790;42.668;23.298;2023-04-25T16:53:22;93729.84;;;20.72;45.30
35676;BME280;21790;42.668;23.298;2023-04-25T16:55:48;93737.53;;;20.79;45.25
35676;BME280;21790;42.668;23.298;2023-04-25T16:58:13;93744.03;;;20.66;45.70
35676;BME280;21790;42.668;23.298;2023-04-25T17:00:40;93757.84;;;20.64;45.68
35676;BME280;21790;42.668;23.298;2023-04-25T17:03:06;93759.59;;;20.46;46.40
35676;BME280;21790;42.668;23.298;2023-04-25T17:05:33;93775.13;;;20.48;46.42
35676;BME280;21790;42.668;23.298;2023-04-25T17:07:59;93780.47;;;20.38;46.40
35676;BME280;21790;42.668;23.298;2023-04-25T17:10:25;93785.47;;;20.32;46.09
35676;BME280;21790;42.668;23.298;2023-04-25T17:12:51;93780.72;;;20.27;46.56
35676;BME280;21790;42.668;23.298;2023-04-25T17:15:19;93783.66;;;20.21;46.45
35676;BME280;21790;42.668;23.298;2023-04-25T17:17:45;93779.06;;;20.11;46.17
35676;BME280;21790;42.668;23.298;2023-04-25T17:20:11;93782.75;;;20.05;46.42
35676;BME280;21790;42.668;23.298;2023-04-25T17:22:37;93787.00;;;19.99;45.77
35676;BME280;21790;42.668;23.298;2023-04-25T17:25:04;93790.84;;;19.75;46.26
35676;BME280;21790;42.668;23.298;2023-04-25T17:27:30;93779.50;;;19.81;46.09
35676;BME280;21790;42.668;23.298;2023-04-25T17:29:56;93785.28;;;19.62;46.99
35676;BME280;21790;42.668;23.298;2023-04-25T17:32:21;93789.94;;;19.46;46.71
35676;BME280;21790;42.668;23.298;2023-04-25T17:34:47;93783.16;;;19.29;47.46
35676;BME280;21790;42.668;23.298;2023-04-25T17:37:14;93788.56;;;19.13;47.75
35676;BME280;21790;42.668;23.298;2023-04-25T17:39:42;93800.06;;;19.10;48.25
35676;BME280;21790;42.668;23.298;2023-04-25T17:42:08;93799.75;;;19.13;48.06
35676;BME280;21790;42.668;23.298;2023-04-25T17:44:34;93804.28;;;19.03;48.31
35676;BME280;21790;42.668;23.298;2023-04-25T17:46:59;93801.91;;;18.94;48.46
35676;BME280;21790;42.668;23.298;2023-04-25T17:49:28;93810.84;;;18.93;48.22
35676;BME280;21790;42.668;23.298;2023-04-25T17:51:53;93812.66;;;18.90;48.29
35676;BME280;21790;42.668;23.298;2023-04-25T17:54:19;93814.94;;;18.92;48.03
35676;BME280;21790;42.668;23.298;2023-04-25T17:56:49;93819.03;;;18.91;48.06
35676;BME280;21790;42.668;23.298;2023-04-25T17:59:15;93825.38;;;18.91;48.73
35676;BME280;21790;42.668;23.298;2023-04-25T18:01:40;93822.03;;;18.79;48.20
35676;BME280;21790;42.668;23.298;2023-04-25T18:04:06;93817.84;;;18.86;47.56
35676;BME280;21790;42.668;23.298;2023-04-25T18:06:33;93823.31;;;18.78;48.11
35676;BME280;21790;42.668;23.298;2023-04-25T18:08:58;93822.69;;;18.86;47.97
35676;BME280;21790;42.668;23.298;2023-04-25T18:11:24;93821.16;;;18.85;47.12
35676;BME280;21790;42.668;23.298;2023-04-25T18:13:50;93829.78;;;18.87;47.46
35676;BME280;21790;42.668;23.298;2023-04-25T18:16:16;93838.28;;;18.81;47.35
35676;BME280;21790;42.668;23.298;2023-04-25T18:18:41;93828.69;;;18.76;47.53
35676;BME280;21790;42.668;23.298;2023-04-25T18:21:09;93835.38;;;18.73;47.63
35676;BME280;21790;42.668;23.298;2023-04-25T18:23:34;93837.69;;;18.56;47.41
35676;BME280;21790;42.668;23.298;2023-04-25T18:26:01;93834.84;;;18.43;47.85
35676;BME280;21790;42.668;23.298;2023-04-25T18:28:28;93840.66;;;18.45;48.02
35676;BME280;21790;42.668;23.298;2023-04-25T18:30:54;93841.31;;;18.51;47.55
35676;BME280;21790;42.668;23.298;2023-04-25T18:33:20;93840.50;;;18.56;47.09
35676;BME280;21790;42.668;23.298;2023-04-25T18:35:48;93834.19;;;18.50;46.97
35676;BME280;21790;42.668;23.298;2023-04-25T18:38:14;93837.59;;;18.62;46.84
35676;BME280;21790;42.668;23.298;2023-04-25T18:40:39;93835.31;;;18.60;46.21
35676;BME280;21790;42.668;23.298;2023-04-25T18:43:08;93828.34;;;18.67;46.18
35676;BME280;21790;42.668;23.298;2023-04-25T18:45:34;93825.22;;;18.57;46.49
35676;BME280;21790;42.668;23.298;2023-04-25T18:47:59;93829.16;;;18.49;45.96
35676;BME280;21790;42.668;23.298;2023-04-25T18:50:25;93836.78;;;18.48;45.71
35676;BME280;21790;42.668;23.298;2023-04-25T18:52:51;93831.59;;;18.39;45.80
35676;BME280;21790;42.668;23.298;2023-04-25T18:55:17;93831.22;;;18.16;45.83
35676;BME280;21790;42.668;23.298;2023-04-25T18:57:43;93828.59;;;18.37;46.03
35676;BME280;21790;42.668;23.298;2023-04-25T19:00:12;93828.31;;;18.22;46.56
35676;BME280;21790;42.668;23.298;2023-04-25T19:02:38;93832.53;;;18.28;46.10
35676;BME280;21790;42.668;23.298;2023-04-25T19:05:08;93838.09;;;18.15;46.38
35676;BME280;21790;42.668;23.298;2023-04-25T19:07:35;93829.09;;;18.04;46.57